Airfield :
LOGIN :

Register | Disclaimer

   EN    FR    IT 

 










Legend :    VFR   Marginal VFR   IFR   Intensive IFR   Very Intensive IFR
Visi :
Ceiling :
>= 8 km
>= 3000ft
5 to 8 km
1000 to 3000 ft
1500m to 5 km
500 to 1000 ft
800 to 1500m
200 to 500 ft
< 800m
< 200 ft
Symbols :   Thunderstorms  Fog  Heavy snow  Heavy precipitations  Wind > 20 kt
SIGMETs :     Misc.  Thunderstorms  Icing  Turbulence  Mountain Waves  Volcanic Ashes







- Airport Elevation : 194 ft
- IATA code : IEG


EPZG - Zielona Gora Babimost

CURRENT METAR :
  • 211130Z 23013KT 210V280 9999 FEW030TCU SCT031 18/11 Q1020

EXPIRED METARs :
  • 211100Z 23014KT 9999 FEW029TCU SCT029 18/12 Q1020
  • 211030Z 23014KT 9999 FEW028TCU SCT028 BKN042 18/12 Q1020
  • 211000Z 25013KT 210V280 9999 SCT025 BKN034 18/11 Q1020
  • 210930Z 24010KT 210V280 9999 FEW019 BKN033 16/12 Q1020
  • 210900Z 26013KT 230V290 9999 BKN028 17/11 Q1020

TAF TAF EPZG
Valid from the 21 at 12:00 until the 21 at 21:00 UTC


211130Z 2112/2121 24013KT 9999 SCT030
TEMPO 2112/2119 27016G28KT SHRA BKN023CB
No reported NOTAMs for that airfield.



MET'MAP, your aeronautical weather chart ! - Copyright ORBIFLY December 2007 - Disclaimer

ORBIFLY MET'MAP TEAM :

Programming & Development : Alexandra Zaïnal
Concept & Development : Baudouin d'Aumeries
Co-Development & Prog : Marc-Olivier Méhu
Technical & hardware support : Manuel Goepfert

Contact : metmap@orbifly.com




SOURCES & CREDITS :

   NOAA